Time;durP1;ratioP1;P1;durP2;ratioP2;P2;SDS_P1;SDS_P2;PMS_P1;PMS_P2;Temp;Humidity;BMP_temperature;BMP_pressure;BME280_temperature;BME280_humidity;BME280_pressure;Samples;Min_cycle;Max_cycle;Signal;HPM_P1;HPM_P2
2021/09/25 00:00:34;;;;;;;4.87;3.60;;;;;;;-143.37;100.00;65745.06;5073995;28;20292;-77
2021/09/25 00:03:02;;;;;;;5.43;3.70;;;;;;;-143.37;100.00;65745.06;5073586;28;20258;-77
2021/09/25 00:05:36;;;;;;;6.23;3.87;;;;;;;-143.37;100.00;65745.06;5073295;28;20321;-79
2021/09/25 00:08:04;;;;;;;8.03;4.60;;;;;;;-143.37;100.00;65745.06;5073342;28;20248;-78
2021/09/25 00:10:31;;;;;;;6.70;4.23;;;;;;;-143.37;100.00;65745.06;5080544;28;20260;-76
2021/09/25 00:12:58;;;;;;;5.10;3.97;;;;;;;-143.37;100.00;65745.06;5052987;28;20257;-78
2021/09/25 00:15:29;;;;;;;6.60;4.17;;;;;;;-143.37;100.00;65745.06;5052058;28;20285;-78
2021/09/25 00:17:57;;;;;;;5.13;3.50;;;;;;;-143.37;100.00;65745.06;5053670;28;20292;-77
2021/09/25 00:20:25;;;;;;;5.37;4.07;;;;;;;-143.37;100.00;65745.06;5053562;28;20293;-78
2021/09/25 00:22:55;;;;;;;5.77;3.87;;;;;;;-143.37;100.00;65745.06;5054006;28;20293;-78
2021/09/25 00:25:21;;;;;;;5.27;4.00;;;;;;;-143.37;100.00;65745.06;5051420;28;20328;-78
2021/09/25 00:27:48;;;;;;;4.97;4.00;;;;;;;-143.37;100.00;65745.06;5052981;28;20206;-79
2021/09/25 00:30:15;;;;;;;6.33;4.03;;;;;;;-143.37;100.00;65745.06;5051575;28;20261;-79
2021/09/25 00:32:42;;;;;;;7.17;4.50;;;;;;;-143.37;100.00;65745.06;5054861;28;20709;-78
2021/09/25 00:35:11;;;;;;;6.80;4.63;;;;;;;-143.37;100.00;65745.06;5071948;28;20717;-78
2021/09/25 00:37:38;;;;;;;5.17;3.77;;;;;;;-143.37;100.00;65745.06;5072021;28;20297;-79
2021/09/25 00:40:06;;;;;;;5.20;4.13;;;;;;;-143.37;100.00;65745.06;5072798;28;20712;-78
2021/09/25 00:42:33;;;;;;;11.00;4.83;;;;;;;-143.37;100.00;65745.06;5072250;28;20762;-78
2021/09/25 00:45:00;;;;;;;5.00;4.10;;;;;;;-143.37;100.00;65745.06;5073472;28;20296;-78
2021/09/25 00:47:26;;;;;;;5.57;3.93;;;;;;;-143.37;100.00;65745.06;5072854;28;20229;-78
2021/09/25 00:49:53;;;;;;;5.13;3.53;;;;;;;-143.37;100.00;65745.06;5073220;28;20315;-78
2021/09/25 00:52:19;;;;;;;6.50;4.40;;;;;;;-143.37;100.00;65745.06;5055000;28;20292;-78
2021/09/25 00:54:46;;;;;;;5.43;3.63;;;;;;;-143.37;100.00;65745.06;5072273;28;20637;-78
2021/09/25 00:57:14;;;;;;;5.90;3.97;;;;;;;-143.37;100.00;65745.06;5072479;28;20773;-78
2021/09/25 01:34:25;;;;;;;4.97;3.90;;;;;;;-143.37;100.00;65745.06;5109755;27;20499;-78
2021/09/25 01:36:52;;;;;;;5.20;3.90;;;;;;;-143.37;100.00;65745.06;5108811;28;20318;-78
2021/09/25 01:39:18;;;;;;;5.00;4.00;;;;;;;-143.37;100.00;65745.06;5109856;28;20299;-79
2021/09/25 01:41:45;;;;;;;4.83;3.40;;;;;;;-143.37;100.00;65745.06;5109449;28;20294;-78
2021/09/25 01:44:12;;;;;;;5.90;3.60;;;;;;;-143.37;100.00;65745.06;5109510;28;20223;-77
2021/09/25 01:46:39;;;;;;;4.13;3.43;;;;;;;-143.37;100.00;65745.06;5108861;28;20683;-76
2021/09/25 01:49:05;;;;;;;5.80;3.43;;;;;;;-143.37;100.00;65745.06;5108253;28;20258;-78
2021/09/25 01:51:32;;;;;;;5.27;3.50;;;;;;;-143.37;100.00;65745.06;5109684;28;20232;-78
2021/09/25 01:53:58;;;;;;;9.77;4.33;;;;;;;-143.37;100.00;65745.06;5109063;28;20310;-78
2021/09/25 01:56:25;;;;;;;4.63;3.80;;;;;;;-143.37;100.00;65745.06;5108646;28;20702;-77
2021/09/25 01:58:51;;;;;;;6.10;3.63;;;;;;;-143.37;100.00;65745.06;5109119;28;20257;-77
2021/09/25 02:01:18;;;;;;;4.73;3.37;;;;;;;-143.37;100.00;65745.06;5109265;28;20235;-79
2021/09/25 02:03:45;;;;;;;5.93;3.73;;;;;;;-143.37;100.00;65745.06;5108321;28;20215;-79
2021/09/25 02:06:12;;;;;;;4.73;3.27;;;;;;;-143.37;100.00;65745.06;5109084;28;20266;-77
2021/09/25 02:08:40;;;;;;;6.93;4.17;;;;;;;-143.37;100.00;65745.06;5109782;28;20238;-78
2021/09/25 02:11:07;;;;;;;5.60;4.13;;;;;;;-143.37;100.00;65745.06;5094624;28;20217;-79
2021/09/25 02:13:34;;;;;;;4.57;3.57;;;;;;;-143.37;100.00;65745.06;5088176;28;20624;-78
2021/09/25 02:16:00;;;;;;;6.37;4.17;;;;;;;-143.37;100.00;65745.06;5086955;28;20261;-78
2021/09/25 02:18:27;;;;;;;9.00;5.70;;;;;;;-143.37;100.00;65745.06;5089053;28;20204;-78
2021/09/25 02:20:54;;;;;;;10.00;6.37;;;;;;;-143.37;100.00;65745.06;5088809;28;20215;-78
2021/09/25 02:23:21;;;;;;;10.33;5.10;;;;;;;-143.37;100.00;65745.06;5087862;28;20843;-78
2021/09/25 02:25:48;;;;;;;8.80;5.73;;;;;;;-143.37;100.00;65745.06;5088071;28;20311;-78
2021/09/25 02:28:14;;;;;;;10.57;6.07;;;;;;;-143.37;100.00;65745.06;5089267;28;20246;-77
2021/09/25 02:30:41;;;;;;;6.93;4.83;;;;;;;-143.37;100.00;65745.06;5087614;28;20300;-78
2021/09/25 02:33:08;;;;;;;11.63;6.13;;;;;;;-143.37;100.00;65745.06;5093957;28;20228;-78
2021/09/25 02:35:34;;;;;;;8.93;4.97;;;;;;;-143.37;100.00;65745.06;5108711;28;20616;-77
2021/09/25 02:38:01;;;;;;;8.10;5.37;;;;;;;-143.37;100.00;65745.06;5109866;28;20246;-79
2021/09/25 02:40:27;;;;;;;9.50;5.83;;;;;;;-143.37;100.00;65745.06;5109231;28;20219;-78
2021/09/25 02:42:54;;;;;;;11.97;6.47;;;;;;;-143.37;100.00;65745.06;5110661;28;20736;-78
2021/09/25 02:45:20;;;;;;;10.77;6.43;;;;;;;-143.37;100.00;65745.06;5097774;28;20641;-78
2021/09/25 02:47:47;;;;;;;10.40;6.57;;;;;;;-143.37;100.00;65745.06;5095799;28;20663;-78
2021/09/25 02:50:15;;;;;;;11.17;6.13;;;;;;;-143.37;100.00;65745.06;5094687;28;20299;-78
2021/09/25 02:52:42;;;;;;;7.73;5.57;;;;;;;-143.37;100.00;65745.06;5095312;28;20315;-77
2021/09/25 02:55:09;;;;;;;8.00;5.77;;;;;;;-143.37;100.00;65745.06;5093768;28;20291;-78
2021/09/25 02:57:36;;;;;;;15.53;6.67;;;;;;;-143.37;100.00;65745.06;5093142;28;20218;-78
2021/09/25 03:00:05;;;;;;;11.73;7.23;;;;;;;-143.37;100.00;65745.06;5094125;28;20303;-77
2021/09/25 03:02:32;;;;;;;11.17;6.60;;;;;;;-143.37;100.00;65745.06;5095348;28;20291;-78
2021/09/25 03:04:59;;;;;;;11.77;6.43;;;;;;;-143.37;100.00;65745.06;5094608;28;20213;-78
2021/09/25 03:07:25;;;;;;;13.37;6.77;;;;;;;-143.37;100.00;65745.06;5095154;28;20267;-78
2021/09/25 03:09:52;;;;;;;11.73;6.50;;;;;;;-143.37;100.00;65745.06;5090873;28;20288;-78
2021/09/25 03:12:18;;;;;;;8.63;5.80;;;;;;;-143.37;100.00;65745.06;5073854;28;20288;-78
2021/09/25 03:14:45;;;;;;;12.30;7.33;;;;;;;-143.37;100.00;65745.06;5074601;28;20598;-79
2021/09/25 03:17:11;;;;;;;12.97;6.90;;;;;;;-143.37;100.00;65745.06;5074824;28;20282;-78
2021/09/25 03:19:38;;;;;;;11.20;6.63;;;;;;;-143.37;100.00;65745.06;5075328;28;20255;-78
2021/09/25 03:22:05;;;;;;;11.63;7.20;;;;;;;-143.37;100.00;65745.06;5090823;28;20205;-78
2021/09/25 03:24:33;;;;;;;14.23;7.03;;;;;;;-143.37;100.00;65745.06;5073781;28;20237;-78
2021/09/25 03:27:00;;;;;;;11.50;6.33;;;;;;;-143.37;100.00;65745.06;5074740;28;20233;-78
2021/09/25 03:29:26;;;;;;;11.47;6.90;;;;;;;-143.37;100.00;65745.06;5073373;28;20202;-77
2021/09/25 03:31:53;;;;;;;14.10;7.30;;;;;;;-143.37;100.00;65745.06;5074845;28;20209;-78
2021/09/25 03:34:19;;;;;;;9.60;5.97;;;;;;;-143.37;100.00;65745.06;5088218;28;20602;-77
2021/09/25 03:36:46;;;;;;;9.87;6.93;;;;;;;-143.37;100.00;65745.06;5094291;28;20419;-79
2021/09/25 03:39:12;;;;;;;8.83;6.33;;;;;;;-143.37;100.00;65745.06;5094075;28;20644;-79
2021/09/25 03:41:39;;;;;;;10.90;6.80;;;;;;;-143.37;100.00;65745.06;5093932;28;20306;-78
2021/09/25 03:44:05;;;;;;;12.93;7.63;;;;;;;-143.37;100.00;65745.06;5093499;28;20291;-77
2021/09/25 03:46:33;;;;;;;9.17;6.57;;;;;;;-143.37;100.00;65745.06;5092948;28;20315;-77
2021/09/25 03:49:00;;;;;;;9.90;7.37;;;;;;;-143.37;100.00;65745.06;5055750;28;20205;-77
2021/09/25 03:51:26;;;;;;;10.33;7.07;;;;;;;-143.37;100.00;65745.06;5073307;28;20857;-76
2021/09/25 03:53:53;;;;;;;12.50;6.83;;;;;;;-143.37;100.00;65745.06;5072962;28;20255;-77
2021/09/25 03:56:19;;;;;;;8.50;6.30;;;;;;;-143.37;100.00;65745.06;5071417;28;20252;-76
2021/09/25 03:58:46;;;;;;;10.63;6.20;;;;;;;-143.37;100.00;65745.06;5074631;28;20240;-78
2021/09/25 04:01:12;;;;;;;9.10;6.30;;;;;;;-143.37;100.00;65745.06;5072442;28;20304;-78
2021/09/25 04:03:39;;;;;;;7.50;5.93;;;;;;;-143.37;100.00;65745.06;5055467;28;20254;-77
2021/09/25 04:06:07;;;;;;;9.73;6.57;;;;;;;-143.37;100.00;65745.06;5072291;28;20236;-77
2021/09/25 04:08:34;;;;;;;8.83;6.33;;;;;;;-143.37;100.00;65745.06;5073760;28;20201;-77
2021/09/25 04:11:00;;;;;;;9.53;6.80;;;;;;;-143.37;100.00;65745.06;5060262;28;20270;-77
2021/09/25 04:13:27;;;;;;;7.60;5.93;;;;;;;-143.37;100.00;65745.06;5052928;28;20276;-77
2021/09/25 04:15:54;;;;;;;8.40;5.97;;;;;;;-143.37;100.00;65745.06;5052207;28;20735;-76
2021/09/25 04:18:20;;;;;;;7.03;5.63;;;;;;;-143.37;100.00;65745.06;5052341;28;20523;-77
2021/09/25 04:20:47;;;;;;;8.63;6.47;;;;;;;-143.37;100.00;65745.06;5051565;28;20301;-77
2021/09/25 04:23:13;;;;;;;8.30;5.50;;;;;;;-143.37;100.00;65745.06;5053150;28;20244;-77
2021/09/25 04:25:40;;;;;;;6.83;5.83;;;;;;;-143.37;100.00;65745.06;5052017;28;20222;-78
2021/09/25 04:28:09;;;;;;;8.87;7.03;;;;;;;-143.37;100.00;65745.06;5052316;28;20300;-78
2021/09/25 04:30:38;;;;;;;7.80;5.73;;;;;;;-143.37;100.00;65745.06;5051516;28;20224;-77
2021/09/25 04:33:09;;;;;;;8.10;5.97;;;;;;;-143.37;100.00;65745.06;5058065;28;20225;-79
2021/09/25 04:35:37;;;;;;;9.77;7.03;;;;;;;-143.37;100.00;65745.06;5073129;28;20259;-77
2021/09/25 04:38:04;;;;;;;8.83;6.40;;;;;;;-143.37;100.00;65745.06;5072657;28;20819;-77
2021/09/25 04:40:31;;;;;;;9.37;6.17;;;;;;;-143.37;100.00;65745.06;5072590;28;20713;-77
2021/09/25 04:42:59;;;;;;;9.80;7.00;;;;;;;-143.37;100.00;65745.06;5071531;28;20287;-78
2021/09/25 04:45:26;;;;;;;8.90;7.03;;;;;;;-143.37;100.00;65745.06;5054846;28;20296;-78
2021/09/25 04:47:53;;;;;;;9.30;6.70;;;;;;;-143.37;100.00;65745.06;5072150;28;20231;-77
2021/09/25 04:50:20;;;;;;;12.13;7.47;;;;;;;-143.37;100.00;65745.06;5072417;28;20299;-78
2021/09/25 04:52:47;;;;;;;9.20;6.50;;;;;;;-143.37;100.00;65745.06;5073029;28;20305;-78
2021/09/25 04:55:13;;;;;;;11.70;7.33;;;;;;;-143.37;100.00;65745.06;5073000;28;20271;-77
2021/09/25 04:57:40;;;;;;;10.33;6.97;;;;;;;-143.37;100.00;65745.06;5071158;28;20248;-77
2021/09/25 05:00:07;;;;;;;10.70;7.43;;;;;;;-143.37;100.00;65745.06;5071602;28;20236;-77
2021/09/25 05:02:34;;;;;;;10.93;7.13;;;;;;;-143.37;100.00;65745.06;5046697;28;20206;-78
2021/09/25 05:05:01;;;;;;;12.53;7.73;;;;;;;-143.37;100.00;65745.06;5051152;28;20204;-77
2021/09/25 05:07:27;;;;;;;11.03;7.20;;;;;;;-143.37;100.00;65745.06;5052023;28;20252;-77
2021/09/25 05:09:54;;;;;;;9.33;6.97;;;;;;;-143.37;100.00;65745.06;5052490;28;20293;-77
2021/09/25 05:12:20;;;;;;;11.93;7.93;;;;;;;-143.37;100.00;65745.06;5051583;28;20251;-79
2021/09/25 05:14:47;;;;;;;10.00;7.10;;;;;;;-143.37;100.00;65745.06;5051164;28;20329;-76
2021/09/25 05:17:13;;;;;;;13.60;7.17;;;;;;;-143.37;100.00;65745.06;5051991;28;20328;-78
2021/09/25 05:19:41;;;;;;;15.13;7.50;;;;;;;-143.37;100.00;65745.06;5052599;28;20392;-77
2021/09/25 05:22:08;;;;;;;12.17;7.10;;;;;;;-143.37;100.00;65745.06;5052657;28;20294;-79
2021/09/25 05:24:35;;;;;;;13.07;7.47;;;;;;;-143.37;100.00;65745.06;5050380;28;20759;-77
2021/09/25 05:27:01;;;;;;;12.93;7.20;;;;;;;-143.37;100.00;65745.06;5051917;28;20240;-77
2021/09/25 05:29:28;;;;;;;13.20;7.83;;;;;;;-143.37;100.00;65745.06;5051549;28;20749;-79
2021/09/25 05:31:58;;;;;;;12.07;6.80;;;;;;;-143.37;100.00;65745.06;5051495;28;20248;-77
2021/09/25 05:34:25;;;;;;;11.63;7.90;;;;;;;-143.37;100.00;65745.06;5066988;28;20224;-77
2021/09/25 05:36:54;;;;;;;10.80;7.03;;;;;;;-143.37;100.00;65745.06;5071207;28;20319;-76
2021/09/25 05:39:20;;;;;;;8.00;6.07;;;;;;;-143.37;100.00;65745.06;5071307;28;20205;-77
2021/09/25 05:41:47;;;;;;;9.30;6.80;;;;;;;-143.37;100.00;65745.06;5070203;28;20653;-78
2021/09/25 05:44:13;;;;;;;7.20;6.00;;;;;;;-143.37;100.00;65745.06;5071963;28;20201;-77
2021/09/25 05:46:40;;;;;;;8.17;6.57;;;;;;;-143.37;100.00;65745.06;5071636;28;20315;-79
2021/09/25 05:49:07;;;;;;;8.30;6.10;;;;;;;-143.37;100.00;65745.06;5071991;28;20223;-79
2021/09/25 05:51:33;;;;;;;8.83;6.97;;;;;;;-143.37;100.00;65745.06;5072840;28;20662;-79
2021/09/25 05:54:00;;;;;;;10.67;7.40;;;;;;;-143.37;100.00;65745.06;5072788;28;20225;-79
2021/09/25 05:56:26;;;;;;;10.80;7.33;;;;;;;-143.37;100.00;65745.06;5057445;28;20256;-77
2021/09/25 05:58:53;;;;;;;8.17;6.47;;;;;;;-143.37;100.00;65745.06;5050598;28;20260;-77
2021/09/25 06:01:19;;;;;;;10.97;6.57;;;;;;;-143.37;100.00;65745.06;5050676;28;20683;-77
2021/09/25 06:03:46;;;;;;;10.87;7.20;;;;;;;-143.37;100.00;65745.06;5049553;28;20255;-78
2021/09/25 06:06:13;;;;;;;8.50;6.70;;;;;;;-143.37;100.00;65745.06;5050412;28;20773;-75
2021/09/25 06:08:40;;;;;;;8.47;6.30;;;;;;;-143.37;100.00;65745.06;5050770;28;20202;-75
2021/09/25 06:11:06;;;;;;;8.83;6.83;;;;;;;-143.37;100.00;65745.06;5050618;28;20766;-74
2021/09/25 06:13:33;;;;;;;11.27;7.33;;;;;;;-143.37;100.00;65745.06;5050200;28;20232;-75
2021/09/25 06:16:00;;;;;;;8.90;6.30;;;;;;;-143.37;100.00;65745.06;5049992;28;20230;-77
2021/09/25 06:18:27;;;;;;;10.47;6.37;;;;;;;-143.37;100.00;65745.06;5050513;28;20582;-75
2021/09/25 06:20:53;;;;;;;8.57;6.67;;;;;;;-143.37;100.00;65745.06;5053877;28;20213;-75
2021/09/25 06:23:20;;;;;;;10.43;6.90;;;;;;;-143.37;100.00;65745.06;5053854;28;20770;-75
2021/09/25 06:25:46;;;;;;;11.97;7.10;;;;;;;-143.37;100.00;65745.06;5054036;28;20226;-76
2021/09/25 06:28:15;;;;;;;10.77;7.30;;;;;;;-143.37;100.00;65745.06;5054119;28;20260;-75
2021/09/25 06:30:41;;;;;;;9.93;7.17;;;;;;;-143.37;100.00;65745.06;5054072;28;20220;-75
2021/09/25 06:33:10;;;;;;;12.53;7.43;;;;;;;-143.37;100.00;65745.06;5053423;28;20688;-76
2021/09/25 06:35:37;;;;;;;11.13;7.47;;;;;;;-143.37;100.00;65745.06;5052035;28;20226;-73
2021/09/25 06:38:04;;;;;;;10.17;7.30;;;;;;;-143.37;100.00;65745.06;5052389;28;20217;-73
2021/09/25 06:40:30;;;;;;;12.43;6.10;;;;;;;-143.37;100.00;65745.06;5052457;28;20293;-73
2021/09/25 06:42:57;;;;;;;8.70;6.10;;;;;;;-143.37;100.00;65745.06;5051941;28;20671;-71
2021/09/25 06:45:30;;;;;;;8.73;6.33;;;;;;;-143.37;100.00;65745.06;5050552;28;20210;-71
2021/09/25 06:47:57;;;;;;;10.23;6.87;;;;;;;-143.37;100.00;65745.06;5052502;28;20309;-73
2021/09/25 06:50:24;;;;;;;9.83;5.80;;;;;;;-143.37;100.00;65745.06;5052297;28;20279;-72
2021/09/25 06:52:50;;;;;;;14.63;6.70;;;;;;;-143.37;100.00;65745.06;5052012;28;20237;-74
2021/09/25 06:55:17;;;;;;;8.43;6.10;;;;;;;-143.37;100.00;65745.06;5051059;28;20258;-72
2021/09/25 06:57:43;;;;;;;9.97;6.30;;;;;;;-143.37;100.00;65745.06;5066587;28;20311;-74
2021/09/25 07:00:10;;;;;;;10.87;5.97;;;;;;;-143.37;100.00;65745.06;5061904;28;20206;-76
2021/09/25 07:02:38;;;;;;;7.20;5.57;;;;;;;-143.37;100.00;65745.06;5051717;28;20301;-73
2021/09/25 07:05:07;;;;;;;8.23;5.63;;;;;;;-143.37;100.00;65745.06;5051042;28;20229;-74
2021/09/25 07:07:34;;;;;;;10.20;6.33;;;;;;;-143.37;100.00;65745.06;5051331;28;20229;-76
2021/09/25 07:10:03;;;;;;;6.53;4.90;;;;;;;-143.37;100.00;65745.06;5047846;28;20203;-74
2021/09/25 07:12:29;;;;;;;5.37;4.37;;;;;;;-143.37;100.00;65745.06;5042051;28;20240;-76
2021/09/25 07:14:56;;;;;;;6.37;5.37;;;;;;;-143.37;100.00;65745.06;5051228;28;20308;-77
2021/09/25 07:17:24;;;;;;;8.63;5.77;;;;;;;-143.37;100.00;65745.06;5066876;28;20234;-75
2021/09/25 07:19:51;;;;;;;11.23;6.30;;;;;;;-143.37;100.00;65745.06;5051464;28;20216;-73
2021/09/25 07:22:17;;;;;;;9.67;6.20;;;;;;;-143.37;100.00;65745.06;5051348;28;20272;-75
2021/09/25 07:24:44;;;;;;;8.73;6.07;;;;;;;-143.37;100.00;65745.06;5049049;28;20722;-73
2021/09/25 07:27:10;;;;;;;6.93;5.07;;;;;;;-143.37;100.00;65745.06;5051330;28;20674;-73
2021/09/25 07:29:37;;;;;;;7.73;5.77;;;;;;;-143.37;100.00;65745.06;5051138;28;20297;-73
2021/09/25 07:32:04;;;;;;;8.67;6.50;;;;;;;-143.37;100.00;65745.06;5049658;28;20274;-73
2021/09/25 07:34:30;;;;;;;7.40;5.80;;;;;;;-143.37;100.00;65745.06;5067601;28;20310;-74
2021/09/25 07:36:57;;;;;;;8.10;5.87;;;;;;;-143.37;100.00;65745.06;5070751;28;20290;-73
2021/09/25 07:39:23;;;;;;;9.80;5.70;;;;;;;-143.37;100.00;65745.06;5070698;28;20298;-75
2021/09/25 07:41:50;;;;;;;9.33;6.57;;;;;;;-143.37;100.00;65745.06;5070672;28;20204;-75
2021/09/25 07:44:16;;;;;;;9.70;6.60;;;;;;;-143.37;100.00;65745.06;5070016;28;20292;-74
2021/09/25 07:46:43;;;;;;;10.87;7.10;;;;;;;-143.37;100.00;65745.06;5070416;28;20750;-74
2021/09/25 07:49:11;;;;;;;8.50;6.60;;;;;;;-143.37;100.00;65745.06;5066352;28;20277;-73
2021/09/25 07:51:38;;;;;;;9.63;6.73;;;;;;;-143.37;100.00;65745.06;5050749;28;20269;-77
2021/09/25 07:54:06;;;;;;;11.53;7.40;;;;;;;-143.37;100.00;65745.06;5050412;28;20257;-75
2021/09/25 07:56:33;;;;;;;10.27;6.83;;;;;;;-143.37;100.00;65745.06;5055387;28;20268;-73
2021/09/25 07:59:00;;;;;;;10.10;7.47;;;;;;;-143.37;100.00;65745.06;5069552;28;20214;-73
2021/09/25 08:01:26;;;;;;;9.30;6.73;;;;;;;-143.37;100.00;65745.06;5072148;28;20252;-74
2021/09/25 08:03:53;;;;;;;8.37;6.50;;;;;;;-143.37;100.00;65745.06;5071095;28;20605;-73
2021/09/25 08:06:20;;;;;;;11.57;6.80;;;;;;;-143.37;100.00;65745.06;5067404;28;20228;-74
2021/09/25 08:08:46;;;;;;;9.77;6.83;;;;;;;-143.37;100.00;65745.06;5048185;28;20240;-77
2021/09/25 08:11:13;;;;;;;9.87;6.97;;;;;;;-143.37;100.00;65745.06;5051716;28;20229;-74
2021/09/25 08:13:40;;;;;;;9.63;6.70;;;;;;;-143.37;100.00;65745.06;5051822;28;20293;-74
2021/09/25 08:16:06;;;;;;;10.47;7.57;;;;;;;-143.37;100.00;65745.06;5051612;28;20313;-74
2021/09/25 08:18:33;;;;;;;10.30;7.27;;;;;;;-143.37;100.00;65745.06;5052253;28;20206;-76
2021/09/25 08:20:59;;;;;;;10.20;7.30;;;;;;;-143.37;100.00;65745.06;5052443;28;20670;-76
2021/09/25 08:23:26;;;;;;;8.67;6.47;;;;;;;-143.37;100.00;65745.06;5051418;28;20725;-75
2021/09/25 08:25:55;;;;;;;10.73;6.47;;;;;;;-143.37;100.00;65745.06;5051448;28;20370;-74
2021/09/25 08:28:22;;;;;;;10.17;7.07;;;;;;;-143.37;100.00;65745.06;5050530;28;20280;-74
2021/09/25 08:30:48;;;;;;;9.32;6.40;;;;;;;-143.37;100.00;65745.06;5052214;28;20205;-78
2021/09/25 08:33:15;;;;;;;9.38;6.28;;;;;;;-143.37;100.00;65745.06;5057428;28;20285;-74
2021/09/25 08:35:41;;;;;;;7.88;6.50;;;;;;;-143.37;100.00;65745.06;5076461;28;20256;-77
2021/09/25 08:38:13;;;;;;;13.02;6.68;;;;;;;-143.37;100.00;65745.06;5054636;28;20634;-78
2021/09/25 08:40:40;;;;;;;7.72;6.50;;;;;;;-143.37;100.00;65745.06;5071682;28;20282;-76
2021/09/25 08:43:07;;;;;;;8.85;6.53;;;;;;;-143.37;100.00;65745.06;5070054;28;20231;-77
2021/09/25 08:45:34;;;;;;;9.43;6.68;;;;;;;-143.37;100.00;65745.06;5061195;28;20723;-77
2021/09/25 08:48:01;;;;;;;7.30;6.20;;;;;;;-143.37;100.00;65745.06;5050484;28;20285;-77
2021/09/25 08:50:28;;;;;;;7.68;6.60;;;;;;;-143.37;100.00;65745.06;5051692;28;20702;-76
2021/09/25 08:52:55;;;;;;;6.82;6.13;;;;;;;-143.37;100.00;65745.06;5056501;28;20226;-77
2021/09/25 08:55:22;;;;;;;8.30;6.78;;;;;;;-143.37;100.00;65745.06;5050703;28;20209;-77
2021/09/25 08:57:48;;;;;;;7.65;6.75;;;;;;;-143.37;100.00;65745.06;5067319;28;20262;-75
2021/09/25 09:00:53;;;;;;;9.40;6.88;;;;;;;-143.37;100.00;65745.06;5071723;28;20635;-75
2021/09/25 09:03:27;;;;;;;7.05;6.35;;;;;;;-143.37;100.00;65745.06;5071934;28;20213;-74
2021/09/25 09:06:24;;;;;;;7.97;7.18;;;;;;;-143.37;100.00;65745.06;5070749;28;20266;-74
2021/09/25 09:08:54;;;;;;;9.15;6.95;;;;;;;-143.37;100.00;65745.06;5067984;28;20202;-74
2021/09/25 09:11:22;;;;;;;8.10;6.75;;;;;;;-143.37;100.00;65745.06;5055599;28;20609;-74
2021/09/25 09:14:00;;;;;;;7.95;6.57;;;;;;;-143.37;100.00;65745.06;5065987;28;20284;-73
2021/09/25 09:16:28;;;;;;;8.30;6.93;;;;;;;-143.37;100.00;65745.06;5044135;28;20226;-74
2021/09/25 09:18:57;;;;;;;7.45;6.68;;;;;;;-143.37;100.00;65745.06;5038763;28;20213;-73
2021/09/25 09:21:29;;;;;;;10.05;7.53;;;;;;;-143.37;100.00;65745.06;5028480;28;20237;-75
2021/09/25 09:24:07;;;;;;;9.02;7.13;;;;;;;-143.37;100.00;65745.06;5028837;28;20209;-74
2021/09/25 09:26:38;;;;;;;15.38;7.40;;;;;;;-143.37;100.00;65745.06;5029337;28;20313;-75
2021/09/25 09:29:07;;;;;;;10.05;8.07;;;;;;;-143.37;100.00;65745.06;5039913;28;20327;-74
2021/09/25 09:31:35;;;;;;;10.05;6.97;;;;;;;-143.37;100.00;65745.06;5051246;28;20254;-73
2021/09/25 09:34:05;;;;;;;8.73;7.47;;;;;;;-143.37;100.00;65745.06;5050003;28;20218;-73
2021/09/25 09:36:34;;;;;;;8.45;7.55;;;;;;;-143.37;100.00;65745.06;5050991;28;20284;-74
2021/09/25 09:39:06;;;;;;;8.20;6.70;;;;;;;-143.37;100.00;65745.06;5051515;28;20574;-73
2021/09/25 09:41:43;;;;;;;7.60;6.90;;;;;;;-143.37;100.00;65745.06;5050793;28;20684;-73
2021/09/25 09:44:15;;;;;;;8.23;7.40;;;;;;;-143.37;100.00;65745.06;5051233;28;20251;-73
2021/09/25 09:46:45;;;;;;;9.70;8.55;;;;;;;-143.37;100.00;65745.06;5051843;28;20389;-74
2021/09/25 09:49:18;;;;;;;9.63;7.32;;;;;;;-143.37;100.00;65745.06;5050525;28;20667;-73
2021/09/25 09:51:47;;;;;;;8.15;7.35;;;;;;;-143.37;100.00;65745.06;5050397;28;20201;-73
2021/09/25 09:54:16;;;;;;;11.30;8.20;;;;;;;-143.37;100.00;65745.06;5050278;28;20211;-74
2021/09/25 09:56:43;;;;;;;9.30;7.60;;;;;;;-143.37;100.00;65745.06;5053282;28;20348;-73
2021/09/25 09:59:10;;;;;;;9.95;8.00;;;;;;;-143.37;100.00;65745.06;5053018;28;20241;-73
2021/09/25 10:01:38;;;;;;;10.32;8.50;;;;;;;-143.37;100.00;65745.06;5054412;28;20251;-73
2021/09/25 10:04:09;;;;;;;9.55;7.90;;;;;;;-143.37;100.00;65745.06;5053972;28;20201;-73
2021/09/25 10:06:36;;;;;;;10.68;8.75;;;;;;;-143.37;100.00;65745.06;5053689;28;20241;-74
2021/09/25 10:09:06;;;;;;;10.10;8.38;;;;;;;-143.37;100.00;65745.06;5053371;28;20290;-74
2021/09/25 10:11:34;;;;;;;11.90;8.40;;;;;;;-143.37;100.00;65745.06;5053304;28;20201;-74
2021/09/25 10:14:02;;;;;;;10.73;8.73;;;;;;;-143.37;100.00;65745.06;5053119;28;20320;-74
2021/09/25 10:16:29;;;;;;;13.52;9.38;;;;;;;-143.37;100.00;65745.06;5052737;28;20254;-74
2021/09/25 10:18:56;;;;;;;11.50;8.95;;;;;;;-143.37;100.00;65745.06;5051528;28;20206;-73
2021/09/25 10:21:24;;;;;;;11.65;8.98;;;;;;;-143.37;100.00;65745.06;5053850;28;20737;-74
2021/09/25 10:24:07;;;;;;;17.83;9.07;;;;;;;-143.37;100.00;65745.06;5053657;28;20271;-74
2021/09/25 10:26:34;;;;;;;13.18;9.20;;;;;;;-143.37;100.00;65745.06;5054604;28;20308;-79
2021/09/25 10:29:05;;;;;;;15.50;8.70;;;;;;;-143.37;100.00;65745.06;5059495;28;20289;-76
2021/09/25 10:31:32;;;;;;;13.40;10.02;;;;;;;-143.37;100.00;65745.06;5064853;28;20224;-74
2021/09/25 10:34:26;;;;;;;13.38;9.60;;;;;;;-143.37;100.00;65745.06;5068150;28;20237;-75
2021/09/25 10:36:58;;;;;;;10.00;8.13;;;;;;;-143.37;100.00;65745.06;5065059;28;20274;-77
2021/09/25 10:39:34;;;;;;;11.75;8.60;;;;;;;-143.37;100.00;65745.06;5059608;28;20234;-76
2021/09/25 10:42:12;;;;;;;11.73;8.73;;;;;;;-143.37;100.00;65745.06;5054740;28;20198;-77
2021/09/25 10:44:42;;;;;;;10.68;8.38;;;;;;;-143.37;100.00;65745.06;5051059;28;20248;-76
2021/09/25 10:47:20;;;;;;;11.20;8.27;;;;;;;-143.37;100.00;65745.06;5049494;28;20463;-77
2021/09/25 10:49:56;;;;;;;14.02;8.40;;;;;;;-143.37;100.00;65745.06;5033925;28;20206;-75
2021/09/25 10:52:40;;;;;;;11.05;8.13;;;;;;;-143.37;100.00;65745.06;5033794;28;20237;-74
2021/09/25 10:55:24;;;;;;;12.63;8.98;;;;;;;-143.37;100.00;65745.06;5033989;28;20202;-75
2021/09/25 10:58:31;;;;;;;10.70;7.93;;;;;;;-143.37;100.00;65745.06;5049620;28;20277;-76
2021/09/25 11:00:59;;;;;;;12.98;9.20;;;;;;;-143.37;100.00;65745.06;5015672;28;20245;-76
2021/09/25 11:03:41;;;;;;;12.88;8.45;;;;;;;-143.37;100.00;65745.06;5047758;28;20313;-79
2021/09/25 11:06:38;;;;;;;11.20;8.25;;;;;;;-143.37;100.00;65745.06;5055284;28;20665;-76
2021/09/25 11:09:26;;;;;;;10.18;8.15;;;;;;;-143.37;100.00;65745.06;5056284;28;20236;-75
2021/09/25 11:11:55;;;;;;;13.75;8.55;;;;;;;-143.37;100.00;65745.06;5048203;28;20248;-75
2021/09/25 11:14:27;;;;;;;9.80;7.53;;;;;;;-143.37;100.00;65745.06;5051393;28;20216;-80
2021/09/25 11:17:20;;;;;;;16.10;7.70;;;;;;;-143.37;100.00;65745.06;5055605;28;20313;-74
2021/09/25 11:19:56;;;;;;;9.65;7.68;;;;;;;-143.37;100.00;65745.06;5051599;28;20292;-75
2021/09/25 11:22:28;;;;;;;12.18;8.10;;;;;;;-143.37;100.00;65745.06;5052372;28;20236;-77
2021/09/25 11:25:17;;;;;;;10.70;8.00;;;;;;;-143.37;100.00;65745.06;5047230;28;20251;-79
2021/09/25 11:27:47;;;;;;;11.18;7.00;;;;;;;-143.37;100.00;65745.06;5050251;28;20298;-77
2021/09/25 11:30:21;;;;;;;11.10;7.75;;;;;;;-143.37;100.00;65745.06;5051052;28;20305;-75
2021/09/25 11:32:56;;;;;;;9.23;7.25;;;;;;;-143.37;100.00;65745.06;5053658;28;20638;-77
2021/09/25 11:35:27;;;;;;;9.80;7.57;;;;;;;-143.37;100.00;65745.06;5069965;28;20996;-77
2021/09/25 11:38:00;;;;;;;9.80;7.30;;;;;;;-143.37;100.00;65745.06;5070317;28;20255;-78
2021/09/25 11:40:34;;;;;;;9.00;6.90;;;;;;;-143.37;100.00;65745.06;5069881;28;20201;-78
2021/09/25 11:43:06;;;;;;;12.23;7.47;;;;;;;-143.37;100.00;65745.06;5070976;28;20580;-78
2021/09/25 11:45:38;;;;;;;10.02;6.75;;;;;;;-143.37;100.00;65745.06;5070462;28;20615;-78
2021/09/25 11:48:06;;;;;;;9.50;6.68;;;;;;;-143.37;100.00;65745.06;5071825;28;20256;-78